Time;durP1;ratioP1;P1;durP2;ratioP2;P2;SDS_P1;SDS_P2;PMS_P1;PMS_P2;Temp;Humidity;BMP_temperature;BMP_pressure;BME280_temperature;BME280_humidity;BME280_pressure;Samples;Min_cycle;Max_cycle;Signal;HPM_P1;HPM_P2
2023/05/09 00:02:08;;;;;;;;;;;10.20;96.30;;;;;;4973921;28;20291;-65
2023/05/09 00:04:34;;;;;;;;;;;10.20;96.20;;;;;;4971728;28;20680;-64
2023/05/09 00:07:00;;;;;;;;;;;10.20;96.40;;;;;;4973447;28;19946;-64
2023/05/09 00:09:25;;;;;;;;;;;10.10;96.40;;;;;;4968743;28;19935;-64
2023/05/09 00:11:51;;;;;;;;;;;10.10;96.70;;;;;;4967326;28;19973;-63
2023/05/09 00:14:17;;;;;;;;;;;10.10;96.60;;;;;;4967226;28;20069;-64
2023/05/09 00:16:43;;;;;;;;;;;10.00;96.50;;;;;;4959044;28;20662;-64
2023/05/09 00:19:09;;;;;;;;;;;10.00;96.50;;;;;;4969368;28;19958;-64
2023/05/09 00:21:34;;;;;;;;;;;10.00;96.70;;;;;;4962502;28;19944;-64
2023/05/09 00:24:00;;;;;;;;;;;10.00;96.80;;;;;;4969036;28;20459;-64
2023/05/09 00:26:26;;;;;;;;;;;10.00;97.00;;;;;;4966543;28;20401;-65
2023/05/09 00:28:52;;;;;;;;;;;9.90;97.30;;;;;;4971510;28;19935;-64
2023/05/09 00:31:19;;;;;;;;;;;9.90;97.10;;;;;;4964725;28;19942;-63
2023/05/09 00:33:44;;;;;;;;;;;9.90;97.00;;;;;;4965124;28;19966;-63
2023/05/09 00:36:10;;;;;;;;;;;9.90;97.10;;;;;;4964269;28;19934;-64
2023/05/09 00:38:35;;;;;;;;;;;9.80;97.20;;;;;;4961372;28;20058;-64
2023/05/09 00:41:01;;;;;;;;;;;9.80;97.20;;;;;;4966016;28;19993;-66
2023/05/09 00:43:26;;;;;;;;;;;9.80;97.20;;;;;;4970009;28;19990;-67
2023/05/09 00:45:52;;;;;;;;;;;9.80;97.30;;;;;;4956789;28;20057;-69
2023/05/09 00:48:18;;;;;;;;;;;9.80;97.20;;;;;;4963730;28;19943;-67
2023/05/09 00:50:43;;;;;;;;;;;9.70;97.30;;;;;;4963141;28;20263;-67
2023/05/09 00:53:09;;;;;;;;;;;9.70;97.80;;;;;;4961693;28;19937;-68
2023/05/09 00:55:34;;;;;;;;;;;9.60;98.10;;;;;;4969271;28;19940;-69
2023/05/09 00:58:01;;;;;;;;;;;9.60;98.00;;;;;;4966636;28;20535;-69
2023/05/09 01:00:27;;;;;;;;;;;9.60;98.10;;;;;;4968621;28;19936;-63
2023/05/09 01:02:54;;;;;;;;;;;9.60;98.10;;;;;;4967700;28;19936;-63
2023/05/09 01:05:20;;;;;;;;;;;9.60;97.60;;;;;;4960230;28;20475;-63
2023/05/09 01:07:51;;;;;;;;;;;9.60;97.70;;;;;;4967540;28;20028;-63
2023/05/09 01:10:25;;;;;;;;;;;9.50;98.00;;;;;;4966761;28;19934;-63
2023/05/09 01:12:53;;;;;;;;;;;9.50;98.30;;;;;;4968595;28;19949;-63
2023/05/09 01:15:28;;;;;;;;;;;9.50;98.40;;;;;;4963679;28;19937;-63
2023/05/09 01:17:58;;;;;;;;;;;9.40;98.40;;;;;;4952171;28;20074;-63
2023/05/09 01:20:45;;;;;;;;;;;9.40;98.50;;;;;;4967244;28;20133;-68
2023/05/09 01:23:21;;;;;;;;;;;9.40;98.50;;;;;;4963519;28;20002;-68
2023/05/09 01:25:47;;;;;;;;;;;9.30;98.60;;;;;;4960322;28;20006;-67
2023/05/09 01:28:15;;;;;;;;;;;9.30;98.60;;;;;;4970186;28;19938;-68
2023/05/09 01:30:43;;;;;;;;;;;9.30;98.80;;;;;;4963501;28;19934;-67
2023/05/09 01:33:09;;;;;;;;;;;9.30;99.00;;;;;;4963469;28;19935;-67
2023/05/09 01:35:36;;;;;;;;;;;9.20;99.00;;;;;;4964300;28;19933;-67
2023/05/09 01:38:18;;;;;;;;;;;9.20;99.10;;;;;;4963031;28;20012;-68
2023/05/09 01:40:46;;;;;;;;;;;9.20;99.20;;;;;;4966164;28;20490;-68
2023/05/09 01:43:13;;;;;;;;;;;9.10;99.40;;;;;;4963998;28;20024;-68
2023/05/09 01:45:40;;;;;;;;;;;9.10;99.40;;;;;;4966637;28;19941;-68
2023/05/09 01:48:07;;;;;;;;;;;9.10;99.60;;;;;;4957084;28;19952;-68
2023/05/09 01:50:34;;;;;;;;;;;9.10;99.90;;;;;;4971146;28;20351;-67
2023/05/09 01:53:00;;;;;;;;;;;9.00;99.90;;;;;;4968974;28;19951;-68
2023/05/09 01:55:29;;;;;;;;;;;9.00;99.90;;;;;;4966535;28;19996;-67
2023/05/09 01:57:55;;;;;;;;;;;8.90;99.90;;;;;;4970111;28;19968;-63
2023/05/09 02:00:21;;;;;;;;;;;8.90;99.90;;;;;;4968261;28;19940;-63
2023/05/09 02:02:47;;;;;;;;;;;8.90;99.90;;;;;;4970862;28;20018;-63
2023/05/09 02:05:13;;;;;;;;;;;8.90;99.90;;;;;;4968723;28;20384;-63
2023/05/09 02:07:40;;;;;;;;;;;8.90;99.90;;;;;;4973698;28;19944;-63
2023/05/09 02:10:06;;;;;;;;;;;8.90;99.90;;;;;;4970793;28;19944;-63
2023/05/09 02:12:32;;;;;;;;;;;8.90;99.90;;;;;;4974308;28;20017;-63
2023/05/09 02:14:58;;;;;;;;;;;8.90;99.90;;;;;;4967594;28;19940;-63
2023/05/09 02:17:23;;;;;;;;;;;8.90;99.90;;;;;;4955406;28;20323;-63
2023/05/09 02:19:49;;;;;;;;;;;8.90;99.90;;;;;;4965741;28;20330;-62
2023/05/09 02:22:15;;;;;;;;;;;8.80;99.90;;;;;;4968701;28;20691;-63
2023/05/09 02:24:41;;;;;;;;;;;8.70;99.90;;;;;;4966808;28;19962;-63
2023/05/09 02:27:07;;;;;;;;;;;8.70;99.90;;;;;;4966149;28;19941;-63
2023/05/09 02:29:48;;;;;;;;;;;8.70;99.90;;;;;;4965256;28;19936;-63
2023/05/09 02:32:19;;;;;;;;;;;8.70;99.90;;;;;;4966664;28;19929;-63
2023/05/09 02:34:45;;;;;;;;;;;8.60;99.90;;;;;;4961415;28;19944;-63
2023/05/09 02:37:11;;;;;;;;;;;8.60;99.90;;;;;;4964782;28;19948;-63
2023/05/09 02:39:37;;;;;;;;;;;8.60;99.90;;;;;;4964714;28;19956;-64
2023/05/09 02:42:06;;;;;;;;;;;8.60;99.90;;;;;;4975061;28;19985;-63
2023/05/09 02:44:32;;;;;;;;;;;8.50;99.90;;;;;;4970893;28;19935;-63
2023/05/09 02:46:58;;;;;;;;;;;8.50;99.90;;;;;;4963564;28;19935;-63
2023/05/09 02:49:23;;;;;;;;;;;8.50;99.90;;;;;;4967964;28;20033;-63
2023/05/09 02:51:49;;;;;;;;;;;8.40;99.90;;;;;;4972984;28;19955;-63
2023/05/09 02:54:14;;;;;;;;;;;8.40;99.90;;;;;;4966199;28;20040;-64
2023/05/09 02:56:40;;;;;;;;;;;8.40;99.90;;;;;;4969457;28;20535;-63
2023/05/09 02:59:06;;;;;;;;;;;8.30;99.90;;;;;;4965755;28;19974;-63
2023/05/09 03:01:31;;;;;;;;;;;8.30;99.90;;;;;;4972833;28;19936;-63
2023/05/09 03:03:57;;;;;;;;;;;8.30;99.90;;;;;;4968973;28;19944;-63
2023/05/09 03:06:22;;;;;;;;;;;8.40;99.90;;;;;;4971106;28;19937;-63
2023/05/09 03:08:48;;;;;;;;;;;8.40;99.90;;;;;;4969794;28;20422;-63
2023/05/09 03:11:13;;;;;;;;;;;8.40;99.90;;;;;;4971637;28;20539;-63
2023/05/09 03:13:39;;;;;;;;;;;8.40;99.90;;;;;;4968725;28;19942;-63
2023/05/09 03:16:04;;;;;;;;;;;8.40;99.90;;;;;;4964932;28;19945;-68
2023/05/09 03:18:30;;;;;;;;;;;8.30;99.90;;;;;;4957702;28;20407;-68
2023/05/09 03:20:56;;;;;;;;;;;8.30;99.90;;;;;;4969758;28;20567;-67
2023/05/09 03:23:22;;;;;;;;;;;8.30;99.90;;;;;;4968138;28;19936;-68
2023/05/09 05:00:54;;;;;;;;;;;10.00;99.90;;;;;;5075499;23;20026;-65
2023/05/09 05:03:20;;;;;;;;;;;10.10;99.90;;;;;;4920248;28;20029;-66
2023/05/09 05:05:45;;;;;;;;;;;10.10;99.90;;;;;;4927291;28;20018;-65
2023/05/09 05:08:11;;;;;;;;;;;10.00;99.90;;;;;;4926290;28;20419;-65
2023/05/09 05:10:36;;;;;;;;;;;10.00;99.90;;;;;;4931447;28;20024;-65
2023/05/09 05:13:02;;;;;;;;;;;10.10;99.90;;;;;;4931317;28;19959;-72
2023/05/09 05:15:27;;;;;;;;;;;10.30;99.90;;;;;;4927700;28;20017;-72
2023/05/09 05:17:53;;;;;;;;;;;10.40;99.90;;;;;;4928734;28;19931;-74
2023/05/09 05:20:18;;;;;;;;;;;10.50;99.90;;;;;;4933992;28;20286;-66
2023/05/09 05:22:44;;;;;;;;;;;10.70;99.90;;;;;;4933821;28;20469;-65
2023/05/09 05:25:10;;;;;;;;;;;10.80;99.90;;;;;;4965334;28;19956;-65
2023/05/09 05:27:35;;;;;;;;;;;10.80;99.90;;;;;;4937360;28;19929;-64
2023/05/09 05:30:01;;;;;;;;;;;10.90;99.90;;;;;;4930896;28;19922;-66
2023/05/09 05:32:27;;;;;;;;;;;11.00;99.90;;;;;;4934195;28;19955;-65
2023/05/09 05:34:52;;;;;;;;;;;11.00;99.90;;;;;;4935238;28;19919;-65
2023/05/09 05:37:18;;;;;;;;;;;10.90;99.90;;;;;;4939371;28;20442;-80
2023/05/09 05:39:43;;;;;;;;;;;10.90;99.90;;;;;;4941357;28;19926;-78
2023/05/09 05:42:09;;;;;;;;;;;10.90;99.90;;;;;;4939380;28;19930;-78
2023/05/09 05:44:34;;;;;;;;;;;11.10;99.90;;;;;;4940392;28;19925;-79
2023/05/09 05:47:00;;;;;;;;;;;11.20;99.90;;;;;;4945934;28;19922;-78
2023/05/09 05:49:25;;;;;;;;;;;11.20;99.90;;;;;;4935469;28;19949;-80
2023/05/09 05:51:51;;;;;;;;;;;11.30;99.90;;;;;;4940070;28;20367;-79
2023/05/09 05:54:16;;;;;;;;;;;11.30;99.90;;;;;;4934999;28;20001;-79
2023/05/09 05:56:42;;;;;;;;;;;11.20;99.90;;;;;;4937442;28;19918;-65
2023/05/09 05:59:08;;;;;;;;;;;11.30;99.90;;;;;;4942876;28;20434;-65
2023/05/09 06:01:33;;;;;;;;;;;11.30;99.90;;;;;;4940231;28;19923;-66
2023/05/09 06:03:59;;;;;;;;;;;11.40;99.90;;;;;;4928513;28;19925;-65
2023/05/09 06:06:27;;;;;;;;;;;11.60;99.90;;;;;;4939998;28;19919;-65
2023/05/09 06:08:53;;;;;;;;;;;11.60;99.90;;;;;;4932702;28;19920;-65
2023/05/09 06:11:18;;;;;;;;;;;11.60;99.90;;;;;;4934841;28;19934;-65
2023/05/09 06:13:44;;;;;;;;;;;11.80;99.90;;;;;;4938291;28;20840;-65
2023/05/09 06:16:10;;;;;;;;;;;11.80;99.90;;;;;;4938046;28;19950;-65
2023/05/09 06:18:36;;;;;;;;;;;11.90;99.90;;;;;;4933168;28;19931;-65
2023/05/09 06:21:08;;;;;;;;;;;12.00;99.90;;;;;;4933767;28;19918;-65
2023/05/09 06:23:35;;;;;;;;;;;12.30;99.90;;;;;;4931647;28;20634;-65
2023/05/09 06:26:01;;;;;;;;;;;12.40;99.90;;;;;;4922749;28;19915;-65
2023/05/09 06:28:27;;;;;;;;;;;12.30;99.90;;;;;;4932457;28;19919;-65
2023/05/09 06:30:52;;;;;;;;;;;12.30;99.90;;;;;;4924745;28;19930;-65
2023/05/09 06:33:18;;;;;;;;;;;12.30;99.60;;;;;;4929924;28;19926;-65
2023/05/09 06:35:43;;;;;;;;;;;12.20;99.80;;;;;;4938048;28;19945;-79
2023/05/09 06:38:09;;;;;;;;;;;12.10;99.90;;;;;;4933575;28;19969;-79
2023/05/09 06:40:35;;;;;;;;;;;12.30;99.90;;;;;;4935858;28;19958;-79
2023/05/09 06:43:00;;;;;;;;;;;12.40;99.90;;;;;;4937641;28;19915;-80
2023/05/09 06:45:26;;;;;;;;;;;12.40;99.90;;;;;;4939240;28;23134;-79
2023/05/09 06:47:51;;;;;;;;;;;12.70;99.90;;;;;;4931103;28;20653;-78
2023/05/09 06:50:17;;;;;;;;;;;13.00;99.90;;;;;;4940746;28;20374;-77
2023/05/09 06:52:42;;;;;;;;;;;13.20;99.90;;;;;;4943684;28;20448;-64
2023/05/09 06:55:09;;;;;;;;;;;13.30;99.20;;;;;;4927582;28;19915;-64
2023/05/09 06:57:35;;;;;;;;;;;13.40;97.90;;;;;;4924494;28;20453;-64
2023/05/09 07:00:01;;;;;;;;;;;13.40;98.30;;;;;;4931721;28;20017;-64
2023/05/09 07:02:26;;;;;;;;;;;13.30;99.20;;;;;;4928530;28;19926;-64
2023/05/09 07:04:52;;;;;;;;;;;13.20;98.90;;;;;;4927211;28;19969;-64
2023/05/09 07:07:17;;;;;;;;;;;13.20;99.30;;;;;;4930733;28;19929;-64
2023/05/09 07:09:43;;;;;;;;;;;13.40;99.90;;;;;;4935663;28;19992;-64
2023/05/09 07:12:08;;;;;;;;;;;13.50;99.10;;;;;;4933062;28;20550;-79
2023/05/09 07:14:34;;;;;;;;;;;13.70;98.40;;;;;;4939958;28;19930;-77
2023/05/09 07:17:00;;;;;;;;;;;13.70;98.10;;;;;;4928590;28;19929;-78
2023/05/09 07:19:25;;;;;;;;;;;13.70;98.10;;;;;;4937291;28;19965;-77
2023/05/09 07:21:51;;;;;;;;;;;13.70;98.00;;;;;;4935666;28;19925;-77
2023/05/09 07:24:16;;;;;;;;;;;13.70;97.70;;;;;;4935907;28;19922;-77
2023/05/09 07:26:42;;;;;;;;;;;13.80;98.20;;;;;;4933050;28;19928;-77
2023/05/09 07:29:07;;;;;;;;;;;13.90;97.50;;;;;;4934484;28;19919;-78
2023/05/09 07:31:33;;;;;;;;;;;14.10;97.30;;;;;;4928669;28;20669;-64
2023/05/09 07:33:58;;;;;;;;;;;14.20;97.40;;;;;;4932330;28;20399;-64
2023/05/09 07:36:24;;;;;;;;;;;14.30;97.30;;;;;;4931887;28;19914;-64
2023/05/09 07:38:51;;;;;;;;;;;14.20;98.50;;;;;;4928349;28;20022;-64
2023/05/09 07:41:17;;;;;;;;;;;14.40;98.00;;;;;;4930557;28;20376;-64
2023/05/09 07:43:43;;;;;;;;;;;14.50;96.90;;;;;;4933139;28;20651;-64
2023/05/09 07:46:08;;;;;;;;;;;14.50;97.90;;;;;;4938616;28;19931;-64
2023/05/09 07:48:34;;;;;;;;;;;14.50;97.00;;;;;;4930276;28;19921;-64
2023/05/09 07:50:59;;;;;;;;;;;14.60;97.20;;;;;;4931468;28;19921;-64
2023/05/09 07:53:25;;;;;;;;;;;14.70;97.00;;;;;;4927223;28;19927;-64
2023/05/09 07:55:51;;;;;;;;;;;14.80;97.10;;;;;;4929357;28;19918;-64
2023/05/09 07:58:17;;;;;;;;;;;14.70;94.80;;;;;;4931102;28;19926;-64
2023/05/09 08:00:42;;;;;;;;;;;14.60;95.30;;;;;;4933418;28;19919;-64
2023/05/09 08:03:08;;;;;;;;;;;14.70;96.00;;;;;;4935560;28;19926;-64
2023/05/09 08:05:33;;;;;;;;;;;14.80;96.20;;;;;;4934930;28;20418;-65
2023/05/09 08:07:59;;;;;;;;;;;14.90;95.90;;;;;;4933395;28;19914;-64
2023/05/09 08:10:25;;;;;;;;;;;15.10;95.10;;;;;;4943091;28;19919;-77
2023/05/09 08:12:51;;;;;;;;;;;15.20;94.60;;;;;;4930929;28;20014;-77
2023/05/09 08:15:16;;;;;;;;;;;15.30;94.90;;;;;;4932434;28;20485;-77
2023/05/09 08:17:42;;;;;;;;;;;15.50;93.70;;;;;;4932558;28;19925;-77
2023/05/09 08:20:08;;;;;;;;;;;15.50;95.50;;;;;;4935099;28;20252;-77
2023/05/09 08:22:33;;;;;;;;;;;15.50;95.90;;;;;;4936278;28;20021;-78
2023/05/09 08:24:59;;;;;;;;;;;15.60;95.00;;;;;;4932251;28;20008;-78
2023/05/09 08:27:25;;;;;;;;;;;15.60;94.80;;;;;;4935607;28;19918;-79
2023/05/09 08:29:50;;;;;;;;;;;15.40;96.20;;;;;;4925127;28;19923;-64
2023/05/09 08:32:16;;;;;;;;;;;15.50;96.10;;;;;;4935992;28;19926;-64
2023/05/09 08:34:41;;;;;;;;;;;15.60;96.00;;;;;;4932318;28;20387;-64
2023/05/09 08:37:07;;;;;;;;;;;15.40;94.40;;;;;;4940777;28;19925;-64
2023/05/09 08:39:34;;;;;;;;;;;15.50;96.10;;;;;;4935655;28;19926;-64
2023/05/09 08:42:00;;;;;;;;;;;15.50;94.80;;;;;;4933546;28;20001;-64
2023/05/09 08:44:26;;;;;;;;;;;15.60;95.90;;;;;;4934178;28;19973;-64
2023/05/09 08:46:55;;;;;;;;;;;15.70;94.80;;;;;;4934623;28;20335;-79
2023/05/09 08:49:21;;;;;;;;;;;15.70;94.70;;;;;;4932425;28;19923;-78
2023/05/09 08:51:47;;;;;;;;;;;15.70;93.80;;;;;;4934948;28;19914;-77
2023/05/09 08:54:12;;;;;;;;;;;15.80;93.90;;;;;;4939888;28;19929;-77
2023/05/09 08:56:39;;;;;;;;;;;15.80;94.10;;;;;;4937290;28;20390;-77
2023/05/09 08:59:04;;;;;;;;;;;16.00;95.40;;;;;;4938145;28;19939;-78
2023/05/09 09:01:31;;;;;;;;;;;16.10;93.90;;;;;;4937377;28;19930;-77
2023/05/09 09:03:57;;;;;;;;;;;16.00;96.00;;;;;;4939087;28;19985;-78
2023/05/09 09:06:24;;;;;;;;;;;16.10;94.50;;;;;;4934211;28;20355;-79
2023/05/09 09:08:51;;;;;;;;;;;16.00;92.10;;;;;;4935576;28;19925;-77
2023/05/09 09:11:17;;;;;;;;;;;15.90;94.40;;;;;;4926657;28;19934;-79
2023/05/09 09:13:43;;;;;;;;;;;16.00;95.60;;;;;;4917864;28;19914;-73
2023/05/09 09:16:10;;;;;;;;;;;16.10;96.10;;;;;;4926159;28;20335;-74
2023/05/09 09:18:36;;;;;;;;;;;16.40;96.90;;;;;;4922197;28;19931;-72
2023/05/09 09:21:05;;;;;;;;;;;16.40;93.00;;;;;;4931242;28;20579;-74
2023/05/09 09:23:31;;;;;;;;;;;16.40;93.30;;;;;;4929458;28;19922;-74
2023/05/09 09:25:57;;;;;;;;;;;16.50;92.50;;;;;;4934107;28;20010;-63
2023/05/09 09:28:23;;;;;;;;;;;16.50;94.20;;;;;;4924914;28;19922;-62
2023/05/09 09:30:48;;;;;;;;;;;16.60;93.80;;;;;;4928330;28;19966;-63
2023/05/09 09:33:20;;;;;;;;;;;16.70;93.10;;;;;;4933567;28;19915;-62
2023/05/09 09:35:47;;;;;;;;;;;16.60;92.20;;;;;;4934446;28;19922;-63
2023/05/09 09:38:12;;;;;;;;;;;16.60;92.70;;;;;;4928064;28;19955;-62
2023/05/09 09:40:39;;;;;;;;;;;16.70;92.50;;;;;;4937835;28;19923;-62
2023/05/09 09:43:06;;;;;;;;;;;16.60;91.20;;;;;;4933371;28;19925;-64
2023/05/09 09:45:31;;;;;;;;;;;16.50;92.30;;;;;;4925507;28;20009;-63
2023/05/09 09:47:57;;;;;;;;;;;16.40;91.80;;;;;;4932640;28;19922;-63
2023/05/09 09:50:24;;;;;;;;;;;16.40;92.70;;;;;;4937153;28;19915;-63
2023/05/09 09:52:50;;;;;;;;;;;16.50;93.40;;;;;;4934841;28;19925;-63
2023/05/09 09:55:19;;;;;;;;;;;16.60;91.60;;;;;;4924461;28;20021;-63
2023/05/09 09:57:46;;;;;;;;;;;16.70;90.70;;;;;;4934960;28;20950;-63
2023/05/09 10:00:14;;;;;;;;;;;16.80;90.80;;;;;;4926184;28;19914;-63
2023/05/09 10:02:49;;;;;;;;;;;16.90;89.90;;;;;;4933809;28;20373;-63
2023/05/09 10:05:19;;;;;;;;;;;16.90;87.70;;;;;;4930079;28;19974;-64
2023/05/09 10:07:45;;;;;;;;;;;16.90;90.00;;;;;;4931623;28;20009;-64
2023/05/09 10:10:11;;;;;;;;;;;17.00;90.80;;;;;;4932063;28;20336;-64
2023/05/09 10:12:36;;;;;;;;;;;17.00;90.80;;;;;;4934254;28;19949;-70
2023/05/09 10:15:08;;;;;;;;;;;17.10;90.40;;;;;;4932319;28;19921;-71
2023/05/09 10:17:34;;;;;;;;;;;17.20;91.10;;;;;;4931422;28;20425;-70
2023/05/09 10:20:01;;;;;;;;;;;17.20;88.30;;;;;;4935383;28;19918;-71
2023/05/09 10:22:28;;;;;;;;;;;17.10;86.40;;;;;;4937042;28;19915;-64
2023/05/09 10:25:12;;;;;;;;;;;17.00;83.70;;;;;;4938136;28;19922;-64
2023/05/09 10:27:40;;;;;;;;;;;16.90;82.90;;;;;;4932477;28;19953;-64
2023/05/09 10:30:06;;;;;;;;;;;16.70;87.60;;;;;;4934307;28;19915;-64
2023/05/09 10:32:42;;;;;;;;;;;16.80;86.40;;;;;;4935830;28;20308;-64
2023/05/09 10:35:09;;;;;;;;;;;16.90;86.70;;;;;;4926867;28;20407;-64
2023/05/09 10:37:35;;;;;;;;;;;16.90;85.60;;;;;;4936414;28;19923;-64
2023/05/09 10:40:03;;;;;;;;;;;17.00;86.80;;;;;;4938165;28;19915;-64
2023/05/09 10:42:29;;;;;;;;;;;17.00;84.50;;;;;;4937479;28;20025;-72
2023/05/09 10:44:55;;;;;;;;;;;17.10;86.70;;;;;;4936112;28;19915;-72
2023/05/09 10:47:21;;;;;;;;;;;17.20;81.20;;;;;;4938398;28;19926;-72
2023/05/09 10:49:48;;;;;;;;;;;17.20;83.40;;;;;;4937573;28;19914;-71
2023/05/09 10:52:13;;;;;;;;;;;17.30;86.40;;;;;;4934970;28;20049;-71
2023/05/09 10:54:39;;;;;;;;;;;17.50;81.60;;;;;;4935589;28;20425;-72
2023/05/09 10:57:08;;;;;;;2.00;0.88;;;17.60;81.50;;;;;;4917673;28;20411;-72
2023/05/09 10:59:41;;;;;;;0.80;0.80;;;17.70;84.70;;;;;;4916888;28;20126;-73
2023/05/09 11:02:12;;;;;;;1.08;0.98;;;17.90;86.00;;;;;;4920341;28;20050;-74
2023/05/09 11:04:39;;;;;;;1.42;1.33;;;18.00;86.20;;;;;;4921919;28;20036;-74
2023/05/09 11:07:22;;;;;;;0.77;0.63;;;18.10;81.00;;;;;;4918514;28;20058;-73
2023/05/09 11:09:52;;;;;;;1.02;0.82;;;17.90;78.80;;;;;;4934004;28;20019;-73
2023/05/09 11:12:23;;;;;;;1.27;1.23;;;17.70;78.30;;;;;;4931670;28;20114;-73
2023/05/09 11:14:54;;;;;;;11.85;1.90;;;17.60;79.50;;;;;;4919043;28;20451;-67
2023/05/09 11:17:20;;;;;;;1.58;0.77;;;17.50;79.90;;;;;;4928118;28;22055;-67
2023/05/09 11:19:46;;;;;;;0.88;0.82;;;17.50;81.60;;;;;;4934514;28;20035;-63
2023/05/09 11:22:14;;;;;;;1.13;1.00;;;17.50;82.70;;;;;;4930103;28;20492;-63
2023/05/09 11:24:48;;;;;;;1.00;0.70;;;17.70;79.90;;;;;;4926488;28;20067;-63
2023/05/09 11:27:20;;;;;;;0.77;0.70;;;17.60;79.60;;;;;;4915933;28;20043;-63
2023/05/09 11:29:54;;;;;;;0.80;0.80;;;17.70;80.50;;;;;;4922145;28;20086;-64
2023/05/09 11:32:26;;;;;;;0.95;0.70;;;17.70;79.60;;;;;;4932565;28;20023;-63
2023/05/09 11:35:04;;;;;;;0.60;0.60;;;17.70;79.30;;;;;;4933914;28;20024;-63
2023/05/09 11:37:30;;;;;;;1.15;0.60;;;17.70;80.70;;;;;;4929805;28;20098;-63
2023/05/09 11:40:03;;;;;;;1.85;0.80;;;17.70;79.80;;;;;;4937800;28;20047;-73
2023/05/09 11:42:30;;;;;;;0.70;0.70;;;17.70;78.00;;;;;;4922979;28;20031;-72
2023/05/09 11:44:57;;;;;;;1.05;0.88;;;17.50;77.50;;;;;;4933950;28;20050;-72
2023/05/09 11:47:23;;;;;;;10.85;1.15;;;17.50;80.30;;;;;;4928963;28;20124;-73
2023/05/09 11:49:49;;;;;;;1.10;0.52;;;17.60;80.60;;;;;;4929284;28;20024;-72
2023/05/09 11:52:15;;;;;;;0.95;0.52;;;17.60;76.20;;;;;;4928721;28;20093;-72
2023/05/09 11:54:41;;;;;;;1.65;0.85;;;17.50;79.40;;;;;;4931656;28;20042;-71
2023/05/09 11:57:07;;;;;;;0.93;0.80;;;17.60;81.00;;;;;;4935864;28;20035;-72
2023/05/09 11:59:34;;;;;;;0.68;0.65;;;17.60;79.60;;;;;;4927901;28;20641;-71
2023/05/09 12:02:04;;;;;;;1.92;0.80;;;17.40;77.30;;;;;;4934298;28;20059;-71
2023/05/09 12:04:31;;;;;;;0.68;0.63;;;17.20;79.10;;;;;;4929026;28;20038;-71
2023/05/09 12:07:00;;;;;;;4.60;0.77;;;17.20;79.50;;;;;;4927778;28;20035;-71
2023/05/09 12:09:33;;;;;;;4.15;0.70;;;17.20;81.60;;;;;;4926660;28;20036;-72
2023/05/09 12:12:00;;;;;;;2.25;0.50;;;17.30;80.60;;;;;;4928510;28;20035;-71
2023/05/09 12:14:30;;;;;;;1.27;0.70;;;17.30;79.20;;;;;;4927518;28;20031;-72
2023/05/09 12:16:57;;;;;;;1.42;1.30;;;17.30;78.60;;;;;;4925101;28;20043;-73
2023/05/09 12:19:26;;;;;;;2.83;1.60;;;17.40;78.90;;;;;;4927437;28;20044;-72
2023/05/09 12:22:04;;;;;;;1.42;0.70;;;17.50;78.30;;;;;;4927588;28;20452;-71
2023/05/09 12:24:30;;;;;;;1.65;0.63;;;17.60;76.80;;;;;;4925729;28;20151;-72
2023/05/09 12:26:57;;;;;;;3.17;2.55;;;17.60;77.40;;;;;;4917879;28;20118;-72
2023/05/09 12:29:24;;;;;;;1.70;1.60;;;17.60;78.20;;;;;;4926711;28;20036;-72
2023/05/09 12:31:52;;;;;;;0.95;0.60;;;17.70;75.30;;;;;;4931798;28;20044;-73
2023/05/09 12:34:18;;;;;;;2.60;0.45;;;17.60;76.80;;;;;;4933263;28;20031;-72
2023/05/09 12:36:49;;;;;;;0.85;0.40;;;17.70;78.10;;;;;;4924991;28;20031;-63
2023/05/09 12:39:21;;;;;;;4.97;0.60;;;17.70;75.90;;;;;;4930084;28;20101;-63
2023/05/09 12:41:48;;;;;;;;;;;17.70;76.40;;;;;;4929977;28;20063;-63
2023/05/09 12:44:19;;;;;;;0.60;0.60;;;17.70;75.00;;;;;;4936813;28;19914;-62
2023/05/09 12:47:00;;;;;;;0.43;0.43;;;17.70;74.90;;;;;;4938990;28;20167;-63
2023/05/09 12:49:26;;;;;;;0.80;0.40;;;17.60;74.00;;;;;;4931413;28;20039;-63
2023/05/09 12:51:53;;;;;;;2.58;0.60;;;17.60;75.60;;;;;;4931005;28;20036;-62
2023/05/09 12:54:23;;;;;;;0.57;0.45;;;17.60;75.50;;;;;;4931735;28;20269;-72
2023/05/09 12:56:54;;;;;;;0.47;0.40;;;17.50;74.10;;;;;;4931415;28;20039;-63
2023/05/09 12:59:25;;;;;;;0.47;0.43;;;17.50;75.90;;;;;;4925798;28;20110;-63
2023/05/09 13:01:56;;;;;;;0.97;0.70;;;17.60;76.30;;;;;;4925773;28;20134;-63
2023/05/09 13:04:23;;;;;;;1.95;0.93;;;17.70;77.50;;;;;;4933826;28;20273;-63
2023/05/09 13:06:58;;;;;;;0.50;0.40;;;17.90;76.60;;;;;;4929693;28;20040;-63
2023/05/09 13:09:26;;;;;;;1.95;0.50;;;18.00;76.00;;;;;;4934882;28;20039;-63
2023/05/09 13:11:52;;;;;;;7.57;3.10;;;18.10;75.90;;;;;;4929582;28;20028;-63
2023/05/09 13:14:20;;;;;;;2.78;1.40;;;18.10;74.10;;;;;;4916068;28;20092;-71
2023/05/09 13:16:46;;;;;;;0.85;0.47;;;18.00;74.80;;;;;;4931394;28;20397;-73
2023/05/09 13:19:12;;;;;;;2.83;0.40;;;18.00;76.80;;;;;;4919641;28;20155;-72
2023/05/09 13:21:38;;;;;;;0.40;0.40;;;18.10;73.40;;;;;;4932119;28;20118;-72
2023/05/09 13:24:04;;;;;;;0.90;0.40;;;18.00;72.60;;;;;;4931648;28;20038;-71
2023/05/09 13:26:30;;;;;;;0.70;0.50;;;17.90;73.40;;;;;;4925298;28;20067;-72
2023/05/09 13:28:56;;;;;;;0.75;0.50;;;17.80;73.30;;;;;;4933098;28;20121;-73
2023/05/09 13:31:21;;;;;;;2.22;0.55;;;17.80;72.80;;;;;;4922925;28;20121;-68
2023/05/09 13:33:48;;;;;;;0.70;0.70;;;17.90;75.80;;;;;;4933785;28;20032;-63
2023/05/09 13:36:14;;;;;;;2.28;0.98;;;18.00;74.80;;;;;;4929061;28;20129;-62
2023/05/09 13:38:41;;;;;;;1.63;1.23;;;18.10;75.20;;;;;;4933463;28;20039;-63
2023/05/09 13:41:07;;;;;;;0.75;0.63;;;18.20;75.40;;;;;;4929596;28;20035;-62
2023/05/09 13:43:33;;;;;;;3.38;1.60;;;18.30;73.20;;;;;;4938723;28;20056;-64
2023/05/09 13:45:59;;;;;;;1.15;0.88;;;18.30;71.50;;;;;;4936805;28;20020;-64
2023/05/09 13:48:25;;;;;;;1.08;0.98;;;18.10;72.10;;;;;;4929883;28;20101;-63
2023/05/09 13:50:50;;;;;;;0.93;0.90;;;18.10;73.00;;;;;;4931245;28;20027;-63
2023/05/09 13:53:16;;;;;;;1.20;0.93;;;18.20;73.80;;;;;;4942186;28;20024;-64
2023/05/09 13:55:44;;;;;;;1.40;1.27;;;18.30;74.70;;;;;;4938145;28;20031;-64
2023/05/09 13:58:10;;;;;;;0.98;0.80;;;18.40;74.30;;;;;;4936688;28;20051;-70
2023/05/09 14:00:36;;;;;;;1.23;1.13;;;18.40;71.70;;;;;;4937604;28;20061;-69
2023/05/09 14:03:02;;;;;;;4.68;0.50;;;18.10;72.30;;;;;;4934163;28;20815;-70
2023/05/09 14:05:30;;;;;;;0.73;0.50;;;18.00;73.70;;;;;;4926253;28;20118;-70
2023/05/09 14:07:55;;;;;;;0.50;0.50;;;18.00;70.50;;;;;;4923406;28;20555;-69
2023/05/09 14:10:21;;;;;;;1.48;0.80;;;17.80;71.60;;;;;;4925517;28;20039;-70
2023/05/09 14:12:47;;;;;;;1.88;0.98;;;17.70;73.00;;;;;;4930091;28;20481;-64
2023/05/09 14:15:13;;;;;;;2.38;0.77;;;17.60;72.50;;;;;;4938688;28;20090;-64
2023/05/09 14:17:38;;;;;;;1.25;0.60;;;17.60;72.40;;;;;;4933798;28;20376;-65
2023/05/09 14:20:05;;;;;;;2.45;0.70;;;17.60;73.30;;;;;;4924911;28;20070;-65
2023/05/09 14:22:31;;;;;;;0.63;0.63;;;17.60;73.60;;;;;;4937281;28;20114;-66
2023/05/09 14:24:57;;;;;;;0.80;0.80;;;17.70;75.10;;;;;;4937696;28;20508;-66
2023/05/09 14:27:23;;;;;;;1.67;1.00;;;17.70;74.50;;;;;;4925097;28;20020;-66
2023/05/09 14:29:49;;;;;;;3.92;0.82;;;17.80;73.40;;;;;;4928104;28;20595;-66
2023/05/09 14:32:16;;;;;;;1.13;0.82;;;17.80;73.60;;;;;;4928443;28;20086;-66
2023/05/09 14:34:42;;;;;;;0.70;0.70;;;17.80;72.90;;;;;;4925925;28;20035;-67
2023/05/09 14:37:12;;;;;;;0.93;0.75;;;17.90;73.70;;;;;;4927069;28;20059;-67
2023/05/09 14:39:42;;;;;;;3.47;0.63;;;17.80;71.00;;;;;;4928537;28;20081;-66
2023/05/09 14:42:10;;;;;;;1.33;0.75;;;17.70;72.60;;;;;;4925199;28;20031;-67
2023/05/09 14:44:39;;;;;;;1.05;0.52;;;17.70;72.30;;;;;;4930423;28;20539;-67
2023/05/09 14:47:06;;;;;;;2.70;0.70;;;17.60;72.70;;;;;;4931146;28;20040;-66
2023/05/09 14:49:32;;;;;;;0.57;0.40;;;17.60;73.50;;;;;;4932764;28;20541;-73
2023/05/09 14:51:58;;;;;;;0.50;0.50;;;17.60;72.60;;;;;;4918570;28;20028;-66
2023/05/09 14:54:24;;;;;;;5.30;0.90;;;17.60;72.60;;;;;;4931103;28;20045;-66
2023/05/09 14:56:49;;;;;;;1.38;0.63;;;17.60;73.20;;;;;;4936452;28;20026;-65
2023/05/09 14:59:15;;;;;;;6.05;0.90;;;17.60;72.70;;;;;;4935809;28;20047;-66
2023/05/09 15:01:41;;;;;;;2.58;1.10;;;17.50;72.60;;;;;;4934238;28;20078;-65
2023/05/09 15:04:06;;;;;;;1.70;1.25;;;17.50;72.60;;;;;;4933830;28;20039;-67
2023/05/09 15:06:33;;;;;;;4.10;1.10;;;17.50;72.50;;;;;;4929215;28;20031;-66
2023/05/09 15:08:59;;;;;;;1.05;0.80;;;17.50;72.70;;;;;;4930077;28;20164;-64
2023/05/09 15:11:25;;;;;;;1.15;0.75;;;17.40;72.30;;;;;;4928399;28;20586;-64
2023/05/09 15:13:52;;;;;;;1.08;0.82;;;17.40;72.90;;;;;;4933653;28;20082;-64
2023/05/09 15:16:18;;;;;;;1.52;0.90;;;17.40;73.10;;;;;;4924503;28;20506;-64
2023/05/09 15:18:44;;;;;;;0.57;0.50;;;17.50;73.70;;;;;;4934107;28;20567;-63
2023/05/09 15:21:13;;;;;;;1.65;0.50;;;17.60;72.40;;;;;;4930121;28;20525;-63
2023/05/09 15:23:38;;;;;;;1.83;0.70;;;17.60;71.90;;;;;;4932963;28;20082;-63